< Typhoon 202211 2022 Season Typhoon 202213 >
Typhoon 202212 (MUIFA)
General InformationDetailed Track InformationTrack Information on Google MapsForecast History on Google MapsAccess Analytics MapList of All Images || NewsDisaster Info.JMA Disaster Info. XMLWeblogTrackbackTyphoon FrontTwiphoonTyphoon Now!Typhoon ImaginationResourceGoogle EarthGE AnimationAtom FeedGeoJSON
Detalied Best Track Wind (Time Zone = UTC)
Year Month Day Hour Lat. Long. Wind (kt) Gust (kt) Direc. of Major Storm Axis Radius of Major Storm Axis (nm) Radius of Minor Storm Axis (nm) Direc. of Major Gale Axis Radius of Major Gale Axis (nm) Radius of Minor Gale Axis (nm) Image
2022 9 7 06 17.6 136.1 30 45 - - - - - - Image
2022 9 7 09 17.4 135.5 30 45 - - - - - - Image
2022 9 7 12 17.3 135.4 30 45 - - - - - - Image
2022 9 7 15 17.1 134.7 30 45 - - - - - - Image
2022 9 7 18 17.0 133.8 30 45 - - - - - - Image
2022 9 7 21 17.0 133.5 30 45 - - - - - - Image
2022 9 8 00 16.5 132.6 35 50 - - - symmetric 90 90 Image
2022 9 8 03 16.5 132.4 35 50 - - - symmetric 90 90 Image
2022 9 8 06 17.1 131.8 35 50 - - - symmetric 90 90 Image
2022 9 8 09 17.2 131.4 35 50 - - - symmetric 90 90 Image
2022 9 8 12 17.1 130.8 40 60 - - - symmetric 120 120 Image
2022 9 8 15 17.0 130.4 40 60 - - - symmetric 120 120 Image
2022 9 8 18 17.1 130.1 45 65 - - - symmetric 120 120 Image
2022 9 8 21 17.3 130.1 45 65 - - - symmetric 120 120 Image
2022 9 9 00 17.5 129.8 45 65 - - - symmetric 120 120 Image
2022 9 9 03 17.9 129.3 45 65 - - - symmetric 90 90 Image
2022 9 9 06 18.8 128.7 45 65 - - - symmetric 90 90 Image
2022 9 9 09 19.1 128.2 45 65 - - - symmetric 90 90 Image
2022 9 9 12 19.4 127.5 55 80 symmetric 30 30 symmetric 90 90 Image
2022 9 9 15 19.7 127.4 55 80 symmetric 30 30 symmetric 90 90 Image
2022 9 9 18 19.9 126.8 55 80 symmetric 30 30 symmetric 90 90 Image
2022 9 9 21 20.1 126.3 55 80 symmetric 30 30 symmetric 90 90 Image
2022 9 10 00 20.5 126.0 65 95 symmetric 50 50 N 150 120 Image
2022 9 10 03 20.7 126.0 65 95 symmetric 50 50 N 150 120 Image
2022 9 10 06 21.1 125.8 70 100 symmetric 50 50 N 150 120 Image
2022 9 10 09 21.3 125.6 70 100 symmetric 50 50 N 150 120 Image
2022 9 10 12 21.7 125.5 70 100 symmetric 50 50 N 150 120 Image
2022 9 10 15 22.1 125.1 70 100 symmetric 50 50 N 150 120 Image
2022 9 10 18 22.2 124.9 85 120 symmetric 70 70 N 180 130 Image
2022 9 10 21 22.4 124.7 85 120 symmetric 70 70 N 180 130 Image
2022 9 11 00 22.6 124.4 85 120 symmetric 70 70 N 180 130 Image
2022 9 11 03 22.6 124.3 85 120 symmetric 70 70 N 180 130 Image
2022 9 11 06 22.9 124.4 85 120 symmetric 70 70 N 180 130 Image
2022 9 11 09 23.2 124.3 85 120 symmetric 70 70 N 180 130 Image
2022 9 11 12 23.4 124.3 85 120 symmetric 70 70 N 180 130 Image
2022 9 11 15 23.5 124.2 85 120 symmetric 70 70 N 180 130 Image
2022 9 11 18 23.7 124.2 85 120 symmetric 70 70 N 180 130 Image
2022 9 11 21 23.9 124.2 85 120 symmetric 70 70 N 180 130 Image
2022 9 12 00 24.0 124.2 80 115 symmetric 70 70 N 180 130 Image
2022 9 12 03 24.5 124.2 80 115 symmetric 70 70 N 150 120 Image
2022 9 12 06 24.8 123.9 75 105 symmetric 70 70 N 150 120 Image
2022 9 12 09 24.9 123.9 75 105 symmetric 70 70 N 150 120 Image
2022 9 12 12 24.9 124.0 75 105 symmetric 70 70 N 150 120 Image
2022 9 12 15 25.0 124.0 75 105 symmetric 70 70 symmetric 120 120 Image
2022 9 12 18 25.2 124.0 75 105 symmetric 70 70 symmetric 120 120 Image
2022 9 12 21 25.4 124.2 75 105 symmetric 70 70 symmetric 120 120 Image
2022 9 13 00 25.7 124.2 80 115 symmetric 70 70 symmetric 120 120 Image
2022 9 13 03 26.0 124.0 80 115 symmetric 70 70 symmetric 120 120 Image
2022 9 13 06 26.1 123.9 80 115 symmetric 60 60 N 150 120 Image
2022 9 13 09 26.4 124.0 80 115 symmetric 60 60 symmetric 150 150 Image
2022 9 13 12 26.7 124.0 80 115 symmetric 60 60 symmetric 150 150 Image
2022 9 13 15 26.9 123.7 80 115 symmetric 60 60 symmetric 150 150 Image
2022 9 13 18 27.2 123.5 80 115 symmetric 60 60 symmetric 150 150 Image
2022 9 13 21 27.6 123.4 80 115 symmetric 60 60 symmetric 150 150 Image
2022 9 14 00 27.8 123.3 80 115 symmetric 60 60 symmetric 150 150 Image
2022 9 14 03 28.3 123.1 80 115 symmetric 60 60 symmetric 150 150 Image
2022 9 14 06 28.7 122.9 80 115 symmetric 60 60 symmetric 150 150 Image
2022 9 14 09 29.4 122.6 80 115 symmetric 60 60 symmetric 150 150 Image
2022 9 14 12 29.8 122.4 80 115 symmetric 60 60 symmetric 150 150 Image
2022 9 14 15 30.6 122.0 80 115 symmetric 60 60 symmetric 150 150 Image
2022 9 14 18 31.3 121.6 70 100 symmetric 40 40 symmetric 120 120 Image
2022 9 14 21 31.9 121.3 55 80 symmetric 30 30 symmetric 120 120 Image
2022 9 15 00 32.7 121.0 50 70 - - - E 120 90 Image
2022 9 15 03 33.3 120.7 50 70 - - - E 120 90 Image
2022 9 15 06 34.0 120.5 45 65 - - - E 120 90 Image
2022 9 15 09 34.6 120.5 45 65 - - - E 120 90 Image
2022 9 15 12 35.1 120.3 40 60 - - - E 120 90 Image
2022 9 15 15 35.7 120.4 40 60 - - - E 120 90 Image
2022 9 15 18 36.4 120.6 40 60 - - - E 120 90 Image
2022 9 15 21 37.0 120.8 40 60 - - - E 120 90 Image
2022 9 16 00 38.0 121.0 40 0 - - - symmetric 200 200 Image
Japan Meteorological Agency Best Track Data | Correction Date : 2022-09-16
< Typhoon 202211 2022 Season Typhoon 202213 >

Help